createdAt,value
2023-04-15T00:01:20.240Z,100517.05
2023-04-15T00:03:48.989Z,100514.02
2023-04-15T00:06:17.225Z,100516.86
2023-04-15T00:08:45.179Z,100516.01
2023-04-15T00:11:13.914Z,100515.32
2023-04-15T00:13:42.794Z,100509.63
2023-04-15T00:16:11.216Z,100508.09
2023-04-15T00:18:39.195Z,100505.91
2023-04-15T00:21:07.293Z,100509.66
2023-04-15T00:23:35.245Z,100511.34
2023-04-15T00:26:03.993Z,100505.38
2023-04-15T00:28:32.453Z,100513.23
2023-04-15T00:31:00.802Z,100513.52
2023-04-15T00:33:28.842Z,100507.87
2023-04-15T00:35:56.819Z,100512.51
2023-04-15T00:38:24.819Z,100505.32
2023-04-15T00:40:52.807Z,100508.46
2023-04-15T00:43:20.890Z,100511.17
2023-04-15T00:45:48.836Z,100512.64
2023-04-15T00:48:17.013Z,100503.12
2023-04-15T00:50:45.040Z,100509.44
2023-04-15T00:53:13.805Z,100510.91
2023-04-15T00:55:41.725Z,100515.75
2023-04-15T00:58:09.790Z,100517.84
2023-04-15T01:00:37.938Z,100512.31
2023-04-15T01:03:06.125Z,100508.66
2023-04-15T01:05:34.205Z,100511.83
2023-04-15T01:08:02.431Z,100510.12
2023-04-15T01:10:30.582Z,100517.28
2023-04-15T01:12:58.516Z,100515.91
2023-04-15T01:15:26.463Z,100513.00
2023-04-15T01:17:54.511Z,100515.00
2023-04-15T01:20:23.513Z,100513.13
2023-04-15T01:22:51.555Z,100517.41
2023-04-15T01:25:20.957Z,100516.11
2023-04-15T01:30:14.436Z,100516.11
2023-04-15T01:32:43.078Z,100520.06
2023-04-15T01:35:11.402Z,100524.71
2023-04-15T01:37:39.389Z,100525.52
2023-04-15T01:40:08.166Z,100520.20
2023-04-15T01:42:37.949Z,100524.15
2023-04-15T01:45:06.600Z,100524.71
2023-04-15T01:47:35.073Z,100531.64
2023-04-15T01:50:03.187Z,100520.95
2023-04-15T01:52:31.775Z,100515.39
2023-04-15T01:54:59.688Z,100526.21
2023-04-15T01:57:27.769Z,100522.84
2023-04-15T01:59:55.783Z,100526.84
2023-04-15T02:02:24.232Z,100524.84
2023-04-15T02:04:52.475Z,100521.83
2023-04-15T02:07:20.988Z,100525.79
2023-04-15T02:09:49.041Z,100526.41
2023-04-15T02:12:16.948Z,100528.11
2023-04-15T02:14:44.870Z,100532.91
2023-04-15T02:17:13.091Z,100536.05
2023-04-15T02:19:41.872Z,100532.59
2023-04-15T02:22:10.631Z,100527.68
2023-04-15T02:24:38.651Z,100530.79
2023-04-15T02:27:06.580Z,100528.92
2023-04-15T02:29:34.703Z,100532.59
2023-04-15T02:32:03.029Z,100542.76
2023-04-15T02:34:31.029Z,100541.71
2023-04-15T02:36:59.219Z,100543.18
2023-04-15T02:39:27.257Z,100541.80
2023-04-15T02:41:55.169Z,100531.77
2023-04-15T02:44:24.771Z,100527.91
2023-04-15T02:46:53.988Z,100530.40
2023-04-15T02:49:22.503Z,100534.71
2023-04-15T02:51:51.106Z,100530.82
2023-04-15T02:54:22.108Z,100527.52
2023-04-15T02:56:51.326Z,100528.96
2023-04-15T02:59:19.215Z,100531.25
2023-04-15T03:01:47.255Z,100533.90
2023-04-15T03:04:15.583Z,100532.52
2023-04-15T03:06:43.920Z,100535.66
2023-04-15T03:09:11.900Z,100532.33
2023-04-15T03:11:42.038Z,100537.43
2023-04-15T03:14:10.032Z,100538.37
2023-04-15T03:16:38.013Z,100542.98
2023-04-15T03:19:06.026Z,100542.13
2023-04-15T03:21:33.919Z,100540.47
2023-04-15T03:24:02.229Z,100541.52
2023-04-15T03:26:30.751Z,100539.84
2023-04-15T03:28:58.972Z,100541.64
2023-04-15T03:31:27.360Z,100538.27
2023-04-15T03:33:55.432Z,100536.91
2023-04-15T03:36:23.440Z,100542.36
2023-04-15T03:38:51.520Z,100545.27
2023-04-15T03:41:19.568Z,100536.15
2023-04-15T03:43:47.530Z,100537.52
2023-04-15T03:46:15.486Z,100538.90
2023-04-15T03:48:43.525Z,100536.38
2023-04-15T03:51:11.611Z,100540.44
2023-04-15T03:53:39.595Z,100534.58
2023-04-15T03:56:07.808Z,100530.92
2023-04-15T03:58:35.930Z,100541.80
2023-04-15T04:01:03.937Z,100544.95
2023-04-15T04:03:32.309Z,100538.44
2023-04-15T04:06:01.183Z,100540.23
2023-04-15T04:08:29.092Z,100532.26
2023-04-15T04:10:57.622Z,100542.66
2023-04-15T04:13:25.643Z,100548.84
2023-04-15T04:15:53.626Z,100549.66
2023-04-15T04:18:21.978Z,100543.80
2023-04-15T04:20:50.004Z,100547.95
2023-04-15T04:23:17.952Z,100549.13
2023-04-15T04:25:45.935Z,100548.90
2023-04-15T04:28:13.904Z,100547.76
2023-04-15T04:30:41.902Z,100546.91
2023-04-15T04:33:09.856Z,100554.79
2023-04-15T04:35:39.003Z,100553.31
2023-04-15T04:38:07.001Z,100560.84
2023-04-15T04:40:34.916Z,100559.40
2023-04-15T04:43:03.034Z,100559.17
2023-04-15T04:45:31.085Z,100558.98
2023-04-15T04:47:59.221Z,100557.05
2023-04-15T04:50:27.415Z,100553.12
2023-04-15T04:52:55.368Z,100551.12
2023-04-15T04:55:23.379Z,100542.66
2023-04-15T04:57:51.364Z,100553.52
2023-04-15T05:00:20.520Z,100542.76
2023-04-15T05:02:48.857Z,100545.80
2023-04-15T05:05:17.585Z,100557.01
2023-04-15T05:07:45.575Z,100549.78
2023-04-15T05:10:13.615Z,100551.55
2023-04-15T05:12:41.781Z,100549.16
2023-04-15T05:15:10.475Z,100552.40
2023-04-15T05:17:38.624Z,100555.34
2023-04-15T05:20:07.109Z,100543.61
2023-04-15T05:22:35.141Z,100540.56
2023-04-15T05:25:03.266Z,100547.76
2023-04-15T05:27:31.312Z,100556.78
2023-04-15T05:29:59.338Z,100554.69
2023-04-15T05:32:27.732Z,100560.22
2023-04-15T05:34:55.757Z,100563.78
2023-04-15T05:37:23.786Z,100561.03
2023-04-15T05:39:51.783Z,100556.09
2023-04-15T05:42:19.709Z,100564.47
2023-04-15T05:44:48.060Z,100560.67
2023-04-15T05:47:16.130Z,100559.10
2023-04-15T05:49:44.100Z,100557.27
2023-04-15T05:52:12.449Z,100555.37
2023-04-15T05:54:40.504Z,100558.09
2023-04-15T05:57:09.232Z,100558.91
2023-04-15T05:59:37.534Z,100562.11
2023-04-15T06:02:05.800Z,100562.02
2023-04-15T06:04:34.110Z,100558.19
2023-04-15T06:07:02.574Z,100563.75
2023-04-15T06:09:30.640Z,100556.78
2023-04-15T06:11:59.138Z,100559.98
2023-04-15T06:14:27.166Z,100557.57
2023-04-15T06:16:55.192Z,100558.58
2023-04-15T06:19:23.217Z,100552.43
2023-04-15T06:21:51.193Z,100556.48
2023-04-15T06:24:19.159Z,100558.35
2023-04-15T06:26:47.186Z,100562.08
2023-04-15T06:29:15.528Z,100555.96
2023-04-15T06:31:43.446Z,100553.52
2023-04-15T06:34:12.447Z,100553.88
2023-04-15T06:36:40.386Z,100548.34
2023-04-15T06:39:08.441Z,100557.89
2023-04-15T06:41:36.873Z,100556.59
2023-04-15T06:44:05.008Z,100551.42
2023-04-15T06:46:33.033Z,100556.09
2023-04-15T06:49:01.173Z,100560.12
2023-04-15T06:51:29.436Z,100555.96
2023-04-15T06:53:58.239Z,100561.23
2023-04-15T06:56:26.326Z,100571.46
2023-04-15T06:58:54.303Z,100575.13
2023-04-15T07:01:22.891Z,100571.27
2023-04-15T07:03:50.846Z,100565.58
2023-04-15T07:06:18.939Z,100576.47
2023-04-15T07:08:46.948Z,100568.95
2023-04-15T07:11:15.551Z,100561.75
2023-04-15T07:13:43.611Z,100560.94
2023-04-15T07:16:11.668Z,100573.78
2023-04-15T07:18:39.638Z,100559.92
2023-04-15T07:21:07.655Z,100561.75
2023-04-15T07:23:35.605Z,100565.09
2023-04-15T07:26:04.368Z,100563.23
2023-04-15T07:28:32.890Z,100562.57
2023-04-15T07:31:01.012Z,100559.89
2023-04-15T07:33:29.100Z,100561.55
2023-04-15T07:35:57.103Z,100562.54
2023-04-15T07:38:25.358Z,100561.66
2023-04-15T07:40:53.346Z,100558.45
2023-04-15T07:43:22.738Z,100552.76
2023-04-15T07:45:50.682Z,100555.73
2023-04-15T07:48:18.653Z,100561.10
2023-04-15T07:50:46.830Z,100562.60
2023-04-15T07:53:14.931Z,100560.05
2023-04-15T07:55:42.895Z,100561.55
2023-04-15T07:58:11.002Z,100556.36
2023-04-15T08:00:39.929Z,100553.16
2023-04-15T08:03:08.463Z,100560.87
2023-04-15T08:05:36.704Z,100562.08
2023-04-15T08:08:04.709Z,100561.95
2023-04-15T08:10:32.931Z,100563.75
2023-04-15T08:13:00.949Z,100566.27
2023-04-15T08:15:29.836Z,100558.55
2023-04-15T08:17:58.078Z,100565.35
2023-04-15T08:20:26.598Z,100553.25
2023-04-15T08:22:55.163Z,100557.37
2023-04-15T08:25:23.240Z,100552.95
2023-04-15T08:27:51.358Z,100557.50
2023-04-15T08:30:19.854Z,100553.97
2023-04-15T08:32:50.935Z,100552.59
2023-04-15T08:35:19.088Z,100551.65
2023-04-15T08:37:47.084Z,100553.55
2023-04-15T08:40:15.593Z,100548.48
2023-04-15T08:42:46.990Z,100550.96
2023-04-15T08:45:15.412Z,100545.57
2023-04-15T08:47:43.720Z,100548.58
2023-04-15T08:50:13.263Z,100548.77
2023-04-15T08:52:41.401Z,100553.12
2023-04-15T08:55:09.774Z,100544.52
2023-04-15T08:57:37.737Z,100545.60
2023-04-15T09:00:06.255Z,100553.09
2023-04-15T09:02:34.503Z,100547.37
2023-04-15T09:05:03.719Z,100548.97
2023-04-15T09:07:31.708Z,100546.74
2023-04-15T09:10:00.012Z,100548.12
2023-04-15T09:12:28.079Z,100545.41
2023-04-15T09:14:56.253Z,100547.92
2023-04-15T09:17:24.339Z,100548.64
2023-04-15T09:20:15.308Z,100543.93
2023-04-15T09:22:44.060Z,100550.63
2023-04-15T09:25:24.013Z,100553.61
2023-04-15T09:27:56.673Z,100549.39
2023-04-15T09:30:25.175Z,100548.58
2023-04-15T09:32:59.905Z,100551.42
2023-04-15T09:35:31.622Z,100554.16
2023-04-15T09:38:11.006Z,100547.30
2023-04-15T09:40:40.426Z,100549.16
2023-04-15T09:43:09.298Z,100550.70
2023-04-15T09:45:37.818Z,100548.70
2023-04-15T09:48:18.933Z,100552.73
2023-04-15T09:50:47.022Z,100561.20
2023-04-15T09:53:18.237Z,100547.40
2023-04-15T09:55:56.720Z,100554.88
2023-04-15T09:58:29.310Z,100551.78
2023-04-15T10:00:58.149Z,100552.73
2023-04-15T10:03:32.506Z,100555.24
2023-04-15T10:06:01.610Z,100553.22
2023-04-15T10:08:34.310Z,100553.31
2023-04-15T10:11:06.186Z,100557.01
2023-04-15T10:13:36.406Z,100555.21
2023-04-15T10:16:11.332Z,100556.84
2023-04-15T10:18:45.307Z,100554.43
2023-04-15T10:21:15.385Z,100557.60
2023-04-15T10:23:43.377Z,100555.54
2023-04-15T10:26:11.419Z,100559.46
2023-04-15T10:28:40.126Z,100560.48
2023-04-15T10:31:08.711Z,100557.83
2023-04-15T10:33:36.894Z,100563.02
2023-04-15T10:36:05.280Z,100560.87
2023-04-15T10:38:41.021Z,100564.56
2023-04-15T10:41:22.290Z,100556.39
2023-04-15T10:43:52.633Z,100558.68
2023-04-15T10:46:44.301Z,100554.07
2023-04-15T10:49:17.162Z,100554.27
2023-04-15T10:51:47.439Z,100553.64
2023-04-15T10:54:27.932Z,100554.88
2023-04-15T10:57:03.086Z,100554.36
2023-04-15T10:59:34.528Z,100548.05
2023-04-15T11:02:04.715Z,100558.71
2023-04-15T11:04:54.635Z,100555.18
2023-04-15T11:07:38.443Z,100550.38
2023-04-15T11:10:32.416Z,100555.57
2023-04-15T11:13:04.820Z,100557.14
2023-04-15T11:15:43.052Z,100564.53
2023-04-15T11:18:17.731Z,100563.16
2023-04-15T11:20:47.980Z,100567.96
2023-04-15T11:23:16.712Z,100564.63
2023-04-15T11:25:45.029Z,100565.77
2023-04-15T11:28:13.753Z,100558.38
2023-04-15T11:30:42.047Z,100562.08
2023-04-15T11:33:11.153Z,100574.14
2023-04-15T11:35:39.250Z,100568.13
2023-04-15T11:38:07.624Z,100561.91
2023-04-15T11:40:36.788Z,100566.66
2023-04-15T11:43:15.500Z,100560.22
2023-04-15T11:45:54.464Z,100568.09
2023-04-15T11:48:24.581Z,100565.16
2023-04-15T11:50:56.959Z,100567.57
2023-04-15T11:53:25.578Z,100572.48
2023-04-15T11:55:54.746Z,100577.71
2023-04-15T11:58:26.777Z,100580.20
2023-04-15T12:01:02.179Z,100581.14
2023-04-15T12:03:31.675Z,100587.42
2023-04-15T12:06:15.380Z,100594.97
2023-04-15T12:09:11.306Z,100607.69
2023-04-15T12:11:43.020Z,100602.36
2023-04-15T12:14:14.655Z,100602.75
2023-04-15T12:16:53.278Z,100606.28
2023-04-15T12:19:26.645Z,100613.48
2023-04-15T12:22:00.028Z,100609.52
2023-04-15T12:24:28.665Z,100623.71
2023-04-15T12:27:00.956Z,100617.59
2023-04-15T12:29:29.961Z,100616.13
2023-04-15T12:32:22.110Z,100614.20
2023-04-15T12:34:53.996Z,100625.97
2023-04-15T12:37:22.024Z,100629.95
2023-04-15T12:39:50.882Z,100628.26
2023-04-15T12:42:19.301Z,100634.30
2023-04-15T12:44:47.446Z,100636.63
2023-04-15T12:47:15.626Z,100633.39
2023-04-15T12:49:43.923Z,100643.30
2023-04-15T12:52:12.064Z,100654.94
2023-04-15T12:54:40.727Z,100650.62
2023-04-15T12:57:09.023Z,100654.84
2023-04-15T12:59:37.617Z,100667.49
2023-04-15T13:02:05.850Z,100662.85
2023-04-15T13:04:34.123Z,100669.35
2023-04-15T13:07:03.217Z,100672.56
2023-04-15T13:09:31.391Z,100672.37
2023-04-15T13:11:59.795Z,100678.51
2023-04-15T13:14:28.492Z,100674.81
2023-04-15T13:16:56.658Z,100679.79
2023-04-15T13:19:24.765Z,100678.64
2023-04-15T13:21:52.914Z,100677.53
2023-04-15T13:24:20.967Z,100677.20
2023-04-15T13:26:50.331Z,100683.35
2023-04-15T13:29:19.571Z,100680.08
2023-04-15T13:31:47.985Z,100675.17
2023-04-15T13:34:16.108Z,100682.59
2023-04-15T13:36:44.473Z,100690.05
2023-04-15T13:39:12.739Z,100687.27
2023-04-15T13:41:41.780Z,100689.89
2023-04-15T13:44:09.819Z,100694.53
2023-04-15T13:46:39.324Z,100696.66
2023-04-15T13:49:07.501Z,100701.17
2023-04-15T13:51:38.205Z,100691.85
2023-04-15T13:54:06.520Z,100698.81
2023-04-15T13:56:34.963Z,100694.63
2023-04-15T13:59:04.489Z,100702.67
2023-04-15T14:01:32.580Z,100705.26
2023-04-15T14:04:00.847Z,100697.51
2023-04-15T14:06:30.022Z,100701.70
2023-04-15T14:08:58.232Z,100703.46
2023-04-15T14:11:26.629Z,100703.62
2023-04-15T14:13:55.189Z,100705.75
2023-04-15T14:16:23.262Z,100708.85
2023-04-15T14:18:51.664Z,100712.32
2023-04-15T14:21:19.934Z,100724.94
2023-04-15T14:23:48.026Z,100722.75
2023-04-15T14:26:16.199Z,100724.48
2023-04-15T14:28:46.186Z,100735.01
2023-04-15T14:31:14.409Z,100734.95
2023-04-15T14:33:42.611Z,100734.06
2023-04-15T14:36:11.021Z,100744.27
2023-04-15T14:38:42.734Z,100746.68
2023-04-15T14:41:13.970Z,100748.74
2023-04-15T14:43:42.239Z,100754.79
2023-04-15T14:46:10.607Z,100754.43
2023-04-15T14:48:39.050Z,100755.94
2023-04-15T14:51:07.222Z,100759.04
2023-04-15T14:53:35.317Z,100768.91
2023-04-15T14:56:03.347Z,100767.18
2023-04-15T15:01:12.285Z,100771.23
2023-04-15T15:03:40.566Z,100788.47
2023-04-15T15:06:08.888Z,100797.82
2023-04-15T15:08:38.168Z,100786.60
2023-04-15T15:11:06.170Z,100809.59
2023-04-15T15:13:34.318Z,100795.73
2023-04-15T15:16:02.364Z,100806.19
2023-04-15T15:18:30.466Z,100807.01
2023-04-15T15:20:58.618Z,100814.62
2023-04-15T15:23:27.234Z,100818.77
2023-04-15T15:25:55.228Z,100824.66
2023-04-15T15:28:23.379Z,100821.85
2023-04-15T15:30:51.411Z,100830.65
2023-04-15T15:33:19.459Z,100835.52
2023-04-15T15:35:47.707Z,100837.84
2023-04-15T15:38:16.317Z,100836.01
2023-04-15T15:40:44.349Z,100842.22
2023-04-15T15:43:12.338Z,100846.77
2023-04-15T15:45:40.385Z,100847.84
2023-04-15T15:48:08.813Z,100847.52
2023-04-15T15:50:37.256Z,100849.09
2023-04-15T15:53:05.478Z,100848.40
2023-04-15T15:55:33.590Z,100852.75
2023-04-15T15:58:01.699Z,100859.09
2023-04-15T16:00:29.801Z,100862.07
2023-04-15T16:05:29.996Z,100872.95
2023-04-15T16:07:57.941Z,100872.01
2023-04-15T16:10:25.970Z,100871.05
2023-04-15T16:12:54.047Z,100873.74
2023-04-15T16:15:22.270Z,100878.55
2023-04-15T16:17:53.552Z,100888.55
2023-04-15T16:20:23.031Z,100885.18
2023-04-15T16:22:51.351Z,100877.56
2023-04-15T16:25:19.455Z,100896.86
2023-04-15T16:30:16.099Z,100886.10
2023-04-15T16:32:44.166Z,100882.86
2023-04-15T16:35:13.112Z,100891.33
2023-04-15T16:37:41.086Z,100893.48
2023-04-15T16:40:09.725Z,100906.53
2023-04-15T16:42:38.216Z,100913.07
2023-04-15T16:45:06.738Z,100922.13
2023-04-15T16:47:35.005Z,100934.26
2023-04-15T16:50:03.174Z,100942.01
2023-04-15T16:52:31.341Z,100954.83
2023-04-15T16:54:59.460Z,100965.23
2023-04-15T16:57:38.189Z,100983.41
2023-04-15T17:00:16.351Z,100991.64
2023-04-15T17:02:44.606Z,101009.63
2023-04-15T17:05:12.784Z,101021.76
2023-04-15T17:07:40.847Z,101022.09
2023-04-15T17:10:09.357Z,101030.35
2023-04-15T17:12:37.471Z,101028.66
2023-04-15T17:15:05.819Z,101021.62
2023-04-15T17:17:33.945Z,101035.06
2023-04-15T17:20:01.988Z,101031.37
2023-04-15T17:22:30.151Z,101036.96
2023-04-15T17:24:58.170Z,101041.02
2023-04-15T17:27:27.849Z,101039.18
2023-04-15T17:29:56.008Z,101054.65
2023-04-15T17:32:24.411Z,101058.21
2023-04-15T17:34:52.663Z,101063.90
2023-04-15T17:37:20.777Z,101066.26
2023-04-15T17:39:48.878Z,101079.04
2023-04-15T17:42:17.255Z,101079.04
2023-04-15T17:44:45.196Z,101081.39
2023-04-15T17:47:13.297Z,101078.38
2023-04-15T17:49:41.346Z,101085.16
2023-04-15T17:52:09.442Z,101090.71
2023-04-15T17:54:37.425Z,101100.45
2023-04-15T17:57:05.523Z,101103.66
2023-04-15T17:59:35.098Z,101112.42
2023-04-15T18:02:03.165Z,101115.63
2023-04-15T18:04:31.562Z,101120.99
2023-04-15T18:06:59.739Z,101130.77
2023-04-15T18:09:28.748Z,101129.59
2023-04-15T18:11:57.773Z,101144.23
2023-04-15T18:14:34.298Z,101145.61
2023-04-15T18:17:04.038Z,101148.78
2023-04-15T18:19:32.296Z,101153.36
2023-04-15T18:22:01.410Z,101155.19
2023-04-15T18:24:29.629Z,101150.12
2023-04-15T18:26:57.880Z,101154.86
2023-04-15T18:29:26.786Z,101153.20
2023-04-15T18:31:55.064Z,101152.31
2023-04-15T18:34:23.166Z,101162.61
2023-04-15T18:36:51.651Z,101169.51
2023-04-15T18:39:19.806Z,101176.37
2023-04-15T18:41:47.945Z,101190.47
2023-04-15T18:44:16.041Z,101189.48
2023-04-15T18:46:44.108Z,101196.38
2023-04-15T18:49:13.254Z,101201.42
2023-04-15T18:51:41.431Z,101192.49
2023-04-15T18:54:09.640Z,101199.55
2023-04-15T18:56:37.734Z,101210.12
2023-04-15T18:59:08.543Z,101221.40
2023-04-15T19:01:54.089Z,101219.34
2023-04-15T19:04:22.300Z,101232.09
2023-04-15T19:06:50.528Z,101230.75
2023-04-15T19:09:18.760Z,101232.09
2023-04-15T19:11:46.856Z,101242.52
2023-04-15T19:14:15.118Z,101252.23
2023-04-15T19:16:43.373Z,101252.23
2023-04-15T19:19:11.582Z,101263.97
2023-04-15T19:21:39.783Z,101261.78
2023-04-15T19:24:08.227Z,101270.02
2023-04-15T19:26:38.113Z,101270.34
2023-04-15T19:29:06.575Z,101270.02
2023-04-15T19:31:35.009Z,101282.93
2023-04-15T19:34:03.352Z,101289.80
2023-04-15T19:36:31.513Z,101295.85
2023-04-15T19:39:01.964Z,101302.19
2023-04-15T19:41:30.101Z,101302.03
2023-04-15T19:43:58.266Z,101300.98
2023-04-15T19:46:26.486Z,101305.69
2023-04-15T19:48:54.721Z,101301.18
2023-04-15T19:51:22.750Z,101302.65
2023-04-15T19:53:51.121Z,101299.94
2023-04-15T19:56:19.213Z,101303.47
2023-04-15T19:58:52.268Z,101300.78
2023-04-15T20:01:21.693Z,101302.75
2023-04-15T20:03:50.200Z,101307.78
2023-04-15T20:06:18.651Z,101308.93
2023-04-15T20:08:46.953Z,101315.30
2023-04-15T20:11:15.341Z,101317.33
2023-04-15T20:13:43.444Z,101322.82
2023-04-15T20:16:13.051Z,101326.84
2023-04-15T20:18:41.019Z,101331.52
2023-04-15T20:21:09.144Z,101322.95
2023-04-15T20:23:37.450Z,101322.79
2023-04-15T20:26:05.598Z,101327.66
2023-04-15T20:28:33.950Z,101320.08
2023-04-15T20:31:02.401Z,101324.42
2023-04-15T20:33:30.631Z,101335.84
2023-04-15T20:35:58.660Z,101327.59
2023-04-15T20:38:26.608Z,101331.29
2023-04-15T20:40:54.682Z,101330.44
2023-04-15T20:43:23.274Z,101329.07
2023-04-15T20:45:52.128Z,101329.43
2023-04-15T20:48:20.522Z,101324.33
2023-04-15T20:50:48.566Z,101329.66
2023-04-15T20:53:16.664Z,101326.09
2023-04-15T20:55:45.977Z,101331.91
2023-04-15T20:58:14.062Z,101332.04
2023-04-15T21:00:42.326Z,101329.00
2023-04-15T21:03:10.499Z,101334.37
2023-04-15T21:05:38.585Z,101330.34
2023-04-15T21:08:06.829Z,101334.37
2023-04-15T21:10:36.405Z,101329.82
2023-04-15T21:13:04.440Z,101343.42
2023-04-15T21:15:32.456Z,101340.91
2023-04-15T21:18:01.451Z,101338.91
2023-04-15T21:20:30.563Z,101343.03
2023-04-15T21:22:58.523Z,101343.39
2023-04-15T21:25:26.480Z,101347.05
2023-04-15T21:27:54.662Z,101343.65
2023-04-15T21:30:22.706Z,101352.55
2023-04-15T21:32:50.753Z,101343.45
2023-04-15T21:35:18.820Z,101352.55
2023-04-15T21:37:46.897Z,101346.49
2023-04-15T21:40:17.365Z,101356.73
2023-04-15T21:42:45.528Z,101357.61
2023-04-15T21:45:13.764Z,101368.99
2023-04-15T21:47:59.731Z,101355.87
2023-04-15T21:50:29.750Z,101357.35
2023-04-15T21:52:57.768Z,101365.39
2023-04-15T21:55:25.850Z,101367.42
2023-04-15T21:57:53.808Z,101368.04
2023-04-15T22:00:22.687Z,101367.81
2023-04-15T22:02:50.750Z,101369.84
2023-04-15T22:05:18.940Z,101378.50
2023-04-15T22:07:46.965Z,101377.66
2023-04-15T22:10:14.886Z,101374.48
2023-04-15T22:12:45.854Z,101373.66
2023-04-15T22:15:14.125Z,101381.55
2023-04-15T22:17:42.147Z,101380.73
2023-04-15T22:20:10.622Z,101380.73
2023-04-15T22:22:44.411Z,101393.45
2023-04-15T22:25:13.132Z,101395.44
2023-04-15T22:27:41.103Z,101387.76
2023-04-15T22:30:09.840Z,101392.30
2023-04-15T22:32:38.201Z,101387.56
2023-04-15T22:35:07.885Z,101391.59
2023-04-15T22:37:35.822Z,101402.11
2023-04-15T22:40:04.094Z,101400.64
2023-04-15T22:42:32.203Z,101403.98
2023-04-15T22:45:00.196Z,101417.09
2023-04-15T22:47:28.475Z,101411.40
2023-04-15T22:49:56.429Z,101413.69
2023-04-15T22:52:30.698Z,101418.85
2023-04-15T22:54:59.860Z,101423.49
2023-04-15T22:57:29.217Z,101421.50
2023-04-15T22:59:57.412Z,101422.97
2023-04-15T23:02:25.529Z,101435.20
2023-04-15T23:04:53.623Z,101432.16
2023-04-15T23:07:21.738Z,101428.46
2023-04-15T23:09:49.733Z,101434.71
2023-04-15T23:12:17.604Z,101428.46
2023-04-15T23:14:45.588Z,101439.02
2023-04-15T23:17:13.611Z,101440.20
2023-04-15T23:19:41.999Z,101438.47
2023-04-15T23:22:11.901Z,101430.91
2023-04-15T23:24:39.868Z,101443.96
2023-04-15T23:27:07.915Z,101441.77
2023-04-15T23:29:35.906Z,101447.46
2023-04-15T23:32:03.982Z,101449.45
2023-04-15T23:34:32.156Z,101456.32
2023-04-15T23:37:00.157Z,101454.95
2023-04-15T23:39:28.132Z,101459.79
2023-04-15T23:41:56.066Z,101460.64
2023-04-15T23:44:24.416Z,101465.15
2023-04-15T23:46:52.787Z,101455.24
2023-04-15T23:49:20.788Z,101457.79
2023-04-15T23:51:48.801Z,101458.64
2023-04-15T23:54:16.853Z,101462.96
2023-04-15T23:56:44.850Z,101464.33
2023-04-15T23:59:12.830Z,101469.66
